Benzonia, Michigan
Current Conditions -  °F | °C
As of 7:56 PM on Tuesday 21 Oct 2014 (Local Time) from KFKS Reporting Station
Clear Clear  
Wind Chill: 43°   Ceiling: Unl
Heat Index: 43°   Visibility: 10mi
Dew Point: 33°   Wind: 3mph
Humidity: 69%   Direction: 50°NE
Pressure: 30.25"   Gusts: NA
Location:  44.62°N, 86.1°W
Report Text: KFKS 212356Z AUTO 05003KT 10SM CLR 06/01 A3025 RMK AO2 T00600006 10108 20057
Loading
Personal Weather Stations






























Interactive Weather Map
Tropical Storm Tracking
New forecast layout! Learn more

10-Day Weather Forecast

Advertisements
Track Severe Weather on mobile